sensor_id;sensor_type;location;lat;lon;timestamp;P1;durP1;ratioP1;P2;durP2;ratioP2
5612;SDS011;63463;53.586;9.928;2023-07-28T00:00:58;7.40;;;5.80;;
5612;SDS011;63463;53.586;9.928;2023-07-28T00:03:24;7.70;;;6.90;;
5612;SDS011;63463;53.586;9.928;2023-07-28T00:05:52;14.37;;;7.10;;
5612;SDS011;63463;53.586;9.928;2023-07-28T00:08:23;6.90;;;6.20;;
5612;SDS011;63463;53.586;9.928;2023-07-28T00:10:49;7.33;;;6.40;;
5612;SDS011;63463;53.586;9.928;2023-07-28T00:13:15;11.40;;;7.47;;
5612;SDS011;63463;53.586;9.928;2023-07-28T00:15:42;10.73;;;7.07;;
5612;SDS011;63463;53.586;9.928;2023-07-28T00:18:11;9.30;;;7.10;;
5612;SDS011;63463;53.586;9.928;2023-07-28T00:20:39;8.50;;;6.50;;
5612;SDS011;63463;53.586;9.928;2023-07-28T00:23:05;10.73;;;7.00;;
5612;SDS011;63463;53.586;9.928;2023-07-28T00:25:31;10.97;;;6.73;;
5612;SDS011;63463;53.586;9.928;2023-07-28T00:28:00;10.57;;;7.77;;
5612;SDS011;63463;53.586;9.928;2023-07-28T00:30:29;13.73;;;7.47;;
5612;SDS011;63463;53.586;9.928;2023-07-28T00:32:56;17.27;;;7.17;;
5612;SDS011;63463;53.586;9.928;2023-07-28T00:35:24;10.30;;;7.10;;
5612;SDS011;63463;53.586;9.928;2023-07-28T00:37:51;10.20;;;6.33;;
5612;SDS011;63463;53.586;9.928;2023-07-28T00:40:21;9.70;;;6.33;;
5612;SDS011;63463;53.586;9.928;2023-07-28T00:42:48;10.10;;;7.00;;
5612;SDS011;63463;53.586;9.928;2023-07-28T00:45:14;8.70;;;6.60;;
5612;SDS011;63463;53.586;9.928;2023-07-28T00:47:42;11.43;;;6.70;;
5612;SDS011;63463;53.586;9.928;2023-07-28T00:50:08;10.87;;;7.90;;
5612;SDS011;63463;53.586;9.928;2023-07-28T00:52:34;10.90;;;7.63;;
5612;SDS011;63463;53.586;9.928;2023-07-28T00:55:00;11.87;;;8.10;;
5612;SDS011;63463;53.586;9.928;2023-07-28T00:57:27;8.53;;;7.43;;
5612;SDS011;63463;53.586;9.928;2023-07-28T00:59:53;10.80;;;8.13;;
5612;SDS011;63463;53.586;9.928;2023-07-28T01:02:19;9.13;;;8.00;;
5612;SDS011;63463;53.586;9.928;2023-07-28T01:04:48;9.43;;;6.90;;
5612;SDS011;63463;53.586;9.928;2023-07-28T01:07:16;13.10;;;7.00;;
5612;SDS011;63463;53.586;9.928;2023-07-28T01:12:16;12.73;;;7.33;;
5612;SDS011;63463;53.586;9.928;2023-07-28T01:14:43;10.17;;;7.50;;
5612;SDS011;63463;53.586;9.928;2023-07-28T01:17:10;13.07;;;7.70;;
5612;SDS011;63463;53.586;9.928;2023-07-28T01:19:36;16.70;;;7.73;;
5612;SDS011;63463;53.586;9.928;2023-07-28T01:27:55;14.00;;;7.77;;
5612;SDS011;63463;53.586;9.928;2023-07-28T01:30:37;7.80;;;6.60;;
5612;SDS011;63463;53.586;9.928;2023-07-28T01:33:08;9.77;;;7.47;;
5612;SDS011;63463;53.586;9.928;2023-07-28T01:35:43;14.60;;;7.30;;
5612;SDS011;63463;53.586;9.928;2023-07-28T01:38:10;15.93;;;8.00;;
5612;SDS011;63463;53.586;9.928;2023-07-28T01:40:48;11.67;;;8.07;;
5612;SDS011;63463;53.586;9.928;2023-07-28T01:43:20;8.50;;;6.30;;
5612;SDS011;63463;53.586;9.928;2023-07-28T01:45:49;9.13;;;6.50;;
5612;SDS011;63463;53.586;9.928;2023-07-28T01:48:21;15.90;;;6.83;;
5612;SDS011;63463;53.586;9.928;2023-07-28T01:50:49;18.90;;;7.77;;
5612;SDS011;63463;53.586;9.928;2023-07-28T01:53:22;8.10;;;6.30;;
5612;SDS011;63463;53.586;9.928;2023-07-28T01:55:50;7.00;;;6.23;;
5612;SDS011;63463;53.586;9.928;2023-07-28T01:58:19;9.70;;;6.80;;
5612;SDS011;63463;53.586;9.928;2023-07-28T02:00:45;7.60;;;6.20;;
5612;SDS011;63463;53.586;9.928;2023-07-28T02:03:11;10.30;;;7.27;;
5612;SDS011;63463;53.586;9.928;2023-07-28T02:05:40;10.40;;;7.90;;
5612;SDS011;63463;53.586;9.928;2023-07-28T02:08:07;23.90;;;8.47;;
5612;SDS011;63463;53.586;9.928;2023-07-28T02:10:36;13.50;;;7.80;;
5612;SDS011;63463;53.586;9.928;2023-07-28T02:13:02;10.57;;;8.20;;
5612;SDS011;63463;53.586;9.928;2023-07-28T02:15:29;14.70;;;8.13;;
5612;SDS011;63463;53.586;9.928;2023-07-28T02:17:57;13.37;;;7.50;;
5612;SDS011;63463;53.586;9.928;2023-07-28T02:20:26;16.10;;;7.80;;
5612;SDS011;63463;53.586;9.928;2023-07-28T02:22:52;17.20;;;8.37;;
5612;SDS011;63463;53.586;9.928;2023-07-28T02:25:22;15.07;;;8.90;;
5612;SDS011;63463;53.586;9.928;2023-07-28T02:28:10;9.93;;;7.70;;
5612;SDS011;63463;53.586;9.928;2023-07-28T02:30:36;16.30;;;8.23;;
5612;SDS011;63463;53.586;9.928;2023-07-28T02:33:07;14.23;;;8.47;;
5612;SDS011;63463;53.586;9.928;2023-07-28T02:35:36;14.83;;;8.13;;
5612;SDS011;63463;53.586;9.928;2023-07-28T02:38:02;12.40;;;8.37;;
5612;SDS011;63463;53.586;9.928;2023-07-28T02:40:28;14.33;;;8.60;;
5612;SDS011;63463;53.586;9.928;2023-07-28T02:42:54;14.20;;;9.10;;
5612;SDS011;63463;53.586;9.928;2023-07-28T02:45:22;10.47;;;7.73;;
5612;SDS011;63463;53.586;9.928;2023-07-28T02:47:48;13.00;;;8.20;;
5612;SDS011;63463;53.586;9.928;2023-07-28T02:50:14;14.93;;;8.57;;
5612;SDS011;63463;53.586;9.928;2023-07-28T02:52:40;18.80;;;8.43;;
5612;SDS011;63463;53.586;9.928;2023-07-28T02:55:07;11.50;;;7.33;;
5612;SDS011;63463;53.586;9.928;2023-07-28T02:57:33;10.43;;;8.00;;
5612;SDS011;63463;53.586;9.928;2023-07-28T03:00:00;11.40;;;8.17;;
5612;SDS011;63463;53.586;9.928;2023-07-28T03:02:29;16.03;;;8.40;;
5612;SDS011;63463;53.586;9.928;2023-07-28T03:04:58;11.87;;;7.80;;
5612;SDS011;63463;53.586;9.928;2023-07-28T03:07:25;12.43;;;8.00;;
5612;SDS011;63463;53.586;9.928;2023-07-28T03:09:51;24.83;;;8.60;;
5612;SDS011;63463;53.586;9.928;2023-07-28T03:12:17;31.10;;;9.43;;
5612;SDS011;63463;53.586;9.928;2023-07-28T03:14:43;10.80;;;7.37;;
5612;SDS011;63463;53.586;9.928;2023-07-28T03:17:10;10.80;;;7.97;;
5612;SDS011;63463;53.586;9.928;2023-07-28T03:19:36;12.37;;;7.00;;
5612;SDS011;63463;53.586;9.928;2023-07-28T03:22:02;9.97;;;6.90;;
5612;SDS011;63463;53.586;9.928;2023-07-28T03:24:29;14.50;;;7.63;;
5612;SDS011;63463;53.586;9.928;2023-07-28T03:26:55;8.77;;;6.73;;
5612;SDS011;63463;53.586;9.928;2023-07-28T03:29:21;10.20;;;7.10;;
5612;SDS011;63463;53.586;9.928;2023-07-28T03:31:50;9.30;;;6.90;;
5612;SDS011;63463;53.586;9.928;2023-07-28T03:34:16;10.67;;;7.30;;
5612;SDS011;63463;53.586;9.928;2023-07-28T03:36:44;12.47;;;8.40;;
5612;SDS011;63463;53.586;9.928;2023-07-28T03:39:16;8.70;;;6.90;;
5612;SDS011;63463;53.586;9.928;2023-07-28T03:41:46;8.63;;;6.53;;
5612;SDS011;63463;53.586;9.928;2023-07-28T03:44:12;7.23;;;6.50;;
5612;SDS011;63463;53.586;9.928;2023-07-28T03:46:41;8.87;;;7.97;;
5612;SDS011;63463;53.586;9.928;2023-07-28T03:49:07;17.33;;;6.50;;
5612;SDS011;63463;53.586;9.928;2023-07-28T03:51:33;9.07;;;7.07;;
5612;SDS011;63463;53.586;9.928;2023-07-28T03:53:59;8.67;;;6.60;;
5612;SDS011;63463;53.586;9.928;2023-07-28T03:56:28;9.83;;;7.60;;
5612;SDS011;63463;53.586;9.928;2023-07-28T03:58:57;10.30;;;7.23;;
5612;SDS011;63463;53.586;9.928;2023-07-28T04:01:25;7.93;;;7.03;;
5612;SDS011;63463;53.586;9.928;2023-07-28T04:03:51;7.70;;;6.80;;
5612;SDS011;63463;53.586;9.928;2023-07-28T04:09:11;8.87;;;6.93;;
5612;SDS011;63463;53.586;9.928;2023-07-28T04:14:31;11.00;;;7.17;;
5612;SDS011;63463;53.586;9.928;2023-07-28T04:17:04;11.60;;;7.10;;
5612;SDS011;63463;53.586;9.928;2023-07-28T04:19:55;13.23;;;7.30;;
5612;SDS011;63463;53.586;9.928;2023-07-28T04:22:36;8.63;;;7.20;;
5612;SDS011;63463;53.586;9.928;2023-07-28T04:25:22;6.80;;;5.90;;
5612;SDS011;63463;53.586;9.928;2023-07-28T04:27:51;15.20;;;6.90;;
5612;SDS011;63463;53.586;9.928;2023-07-28T04:30:17;7.90;;;6.80;;
5612;SDS011;63463;53.586;9.928;2023-07-28T04:32:50;8.80;;;6.90;;
5612;SDS011;63463;53.586;9.928;2023-07-28T04:35:19;7.87;;;6.70;;
5612;SDS011;63463;53.586;9.928;2023-07-28T04:38:01;7.60;;;6.77;;
5612;SDS011;63463;53.586;9.928;2023-07-28T04:40:36;6.97;;;6.30;;
5612;SDS011;63463;53.586;9.928;2023-07-28T04:43:11;9.03;;;7.50;;
5612;SDS011;63463;53.586;9.928;2023-07-28T04:45:37;7.90;;;7.10;;
5612;SDS011;63463;53.586;9.928;2023-07-28T04:48:03;9.83;;;7.47;;
5612;SDS011;63463;53.586;9.928;2023-07-28T04:50:30;9.47;;;7.43;;
5612;SDS011;63463;53.586;9.928;2023-07-28T04:53:01;9.20;;;7.30;;
5612;SDS011;63463;53.586;9.928;2023-07-28T04:55:27;8.80;;;7.17;;
5612;SDS011;63463;53.586;9.928;2023-07-28T04:58:02;8.90;;;7.67;;
5612;SDS011;63463;53.586;9.928;2023-07-28T05:00:31;10.10;;;7.80;;
5612;SDS011;63463;53.586;9.928;2023-07-28T05:02:59;13.33;;;7.73;;
5612;SDS011;63463;53.586;9.928;2023-07-28T05:05:30;9.37;;;7.20;;
5612;SDS011;63463;53.586;9.928;2023-07-28T05:08:00;8.47;;;7.10;;
5612;SDS011;63463;53.586;9.928;2023-07-28T05:10:45;9.60;;;7.50;;
5612;SDS011;63463;53.586;9.928;2023-07-28T05:13:27;11.87;;;8.10;;
5612;SDS011;63463;53.586;9.928;2023-07-28T05:16:00;9.47;;;7.50;;
5612;SDS011;63463;53.586;9.928;2023-07-28T05:18:39;15.57;;;8.60;;
5612;SDS011;63463;53.586;9.928;2023-07-28T05:21:10;9.90;;;7.90;;
5612;SDS011;63463;53.586;9.928;2023-07-28T05:23:46;10.53;;;8.70;;
5612;SDS011;63463;53.586;9.928;2023-07-28T05:26:16;10.47;;;8.17;;
5612;SDS011;63463;53.586;9.928;2023-07-28T05:28:42;8.83;;;7.93;;
5612;SDS011;63463;53.586;9.928;2023-07-28T05:31:16;10.87;;;8.50;;
5612;SDS011;63463;53.586;9.928;2023-07-28T05:33:55;11.13;;;9.33;;
5612;SDS011;63463;53.586;9.928;2023-07-28T05:36:24;17.07;;;10.43;;
5612;SDS011;63463;53.586;9.928;2023-07-28T05:38:50;13.00;;;9.70;;
5612;SDS011;63463;53.586;9.928;2023-07-28T05:41:18;18.53;;;9.07;;
5612;SDS011;63463;53.586;9.928;2023-07-28T05:43:46;14.73;;;9.27;;
5612;SDS011;63463;53.586;9.928;2023-07-28T05:52:09;11.93;;;8.90;;
5612;SDS011;63463;53.586;9.928;2023-07-28T05:54:36;9.53;;;8.53;;
5612;SDS011;63463;53.586;9.928;2023-07-28T05:57:25;9.37;;;8.40;;
5612;SDS011;63463;53.586;9.928;2023-07-28T06:00:10;8.70;;;7.80;;
5612;SDS011;63463;53.586;9.928;2023-07-28T06:02:39;8.90;;;8.00;;
5612;SDS011;63463;53.586;9.928;2023-07-28T06:05:09;7.70;;;7.00;;
5612;SDS011;63463;53.586;9.928;2023-07-28T06:07:35;9.43;;;8.20;;
5612;SDS011;63463;53.586;9.928;2023-07-28T06:10:02;9.07;;;7.40;;
5612;SDS011;63463;53.586;9.928;2023-07-28T06:12:30;16.30;;;7.20;;
5612;SDS011;63463;53.586;9.928;2023-07-28T06:14:56;6.90;;;6.23;;
5612;SDS011;63463;53.586;9.928;2023-07-28T06:20:05;8.87;;;7.27;;
5612;SDS011;63463;53.586;9.928;2023-07-28T06:22:31;7.40;;;6.60;;
5612;SDS011;63463;53.586;9.928;2023-07-28T06:24:57;7.50;;;6.73;;
5612;SDS011;63463;53.586;9.928;2023-07-28T06:27:25;7.73;;;6.93;;
5612;SDS011;63463;53.586;9.928;2023-07-28T06:29:51;6.90;;;6.33;;
5612;SDS011;63463;53.586;9.928;2023-07-28T06:32:17;6.70;;;6.10;;
5612;SDS011;63463;53.586;9.928;2023-07-28T06:34:45;6.50;;;6.00;;
5612;SDS011;63463;53.586;9.928;2023-07-28T06:37:11;6.13;;;5.60;;
5612;SDS011;63463;53.586;9.928;2023-07-28T06:39:40;15.53;;;6.73;;
5612;SDS011;63463;53.586;9.928;2023-07-28T06:42:07;7.07;;;6.37;;
5612;SDS011;63463;53.586;9.928;2023-07-28T06:44:33;7.07;;;6.47;;
5612;SDS011;63463;53.586;9.928;2023-07-28T06:47:00;7.00;;;6.37;;
5612;SDS011;63463;53.586;9.928;2023-07-28T06:49:26;7.03;;;6.33;;
5612;SDS011;63463;53.586;9.928;2023-07-28T06:51:55;7.03;;;6.43;;
5612;SDS011;63463;53.586;9.928;2023-07-28T06:54:24;11.13;;;7.63;;
5612;SDS011;63463;53.586;9.928;2023-07-28T06:56:58;7.17;;;6.60;;
5612;SDS011;63463;53.586;9.928;2023-07-28T06:59:25;8.27;;;7.57;;
5612;SDS011;63463;53.586;9.928;2023-07-28T07:01:54;7.20;;;6.60;;
5612;SDS011;63463;53.586;9.928;2023-07-28T07:04:20;6.63;;;6.10;;
5612;SDS011;63463;53.586;9.928;2023-07-28T07:06:48;6.30;;;5.90;;
5612;SDS011;63463;53.586;9.928;2023-07-28T07:09:22;7.30;;;6.70;;
5612;SDS011;63463;53.586;9.928;2023-07-28T07:11:49;6.47;;;5.87;;
5612;SDS011;63463;53.586;9.928;2023-07-28T07:14:16;7.20;;;6.50;;
5612;SDS011;63463;53.586;9.928;2023-07-28T07:16:45;6.47;;;5.97;;
5612;SDS011;63463;53.586;9.928;2023-07-28T07:19:14;7.20;;;4.90;;
5612;SDS011;63463;53.586;9.928;2023-07-28T07:21:44;5.17;;;4.87;;
5612;SDS011;63463;53.586;9.928;2023-07-28T07:24:10;5.70;;;5.20;;
5612;SDS011;63463;53.586;9.928;2023-07-28T07:26:39;5.13;;;4.83;;
5612;SDS011;63463;53.586;9.928;2023-07-28T07:29:12;5.90;;;5.40;;
5612;SDS011;63463;53.586;9.928;2023-07-28T07:31:38;5.90;;;5.40;;
5612;SDS011;63463;53.586;9.928;2023-07-28T07:34:07;5.93;;;5.47;;
5612;SDS011;63463;53.586;9.928;2023-07-28T07:36:40;5.97;;;5.47;;
5612;SDS011;63463;53.586;9.928;2023-07-28T07:39:07;5.50;;;5.10;;
5612;SDS011;63463;53.586;9.928;2023-07-28T07:41:38;6.10;;;5.70;;
5612;SDS011;63463;53.586;9.928;2023-07-28T07:44:10;5.37;;;5.07;;
5612;SDS011;63463;53.586;9.928;2023-07-28T07:46:42;5.73;;;5.20;;
5612;SDS011;63463;53.586;9.928;2023-07-28T07:49:09;5.97;;;5.47;;
5612;SDS011;63463;53.586;9.928;2023-07-28T07:51:35;5.30;;;4.90;;
5612;SDS011;63463;53.586;9.928;2023-07-28T07:54:03;4.77;;;4.47;;
5612;SDS011;63463;53.586;9.928;2023-07-28T07:56:29;5.77;;;5.27;;
5612;SDS011;63463;53.586;9.928;2023-07-28T07:58:58;4.40;;;4.20;;
5612;SDS011;63463;53.586;9.928;2023-07-28T08:01:29;5.70;;;5.30;;
5612;SDS011;63463;53.586;9.928;2023-07-28T08:03:55;6.73;;;4.83;;
5612;SDS011;63463;53.586;9.928;2023-07-28T08:06:23;4.97;;;4.40;;
5612;SDS011;63463;53.586;9.928;2023-07-28T08:08:50;4.20;;;3.90;;
5612;SDS011;63463;53.586;9.928;2023-07-28T08:11:18;3.80;;;3.60;;
5612;SDS011;63463;53.586;9.928;2023-07-28T08:13:50;3.97;;;3.77;;
5612;SDS011;63463;53.586;9.928;2023-07-28T08:16:16;4.23;;;3.93;;
5612;SDS011;63463;53.586;9.928;2023-07-28T08:18:42;4.23;;;3.93;;
5612;SDS011;63463;53.586;9.928;2023-07-28T08:21:10;4.23;;;3.93;;
5612;SDS011;63463;53.586;9.928;2023-07-28T08:23:38;4.07;;;3.87;;
5612;SDS011;63463;53.586;9.928;2023-07-28T08:26:04;4.60;;;4.30;;
5612;SDS011;63463;53.586;9.928;2023-07-28T08:28:32;4.40;;;4.10;;
5612;SDS011;63463;53.586;9.928;2023-07-28T08:31:01;4.43;;;4.10;;
5612;SDS011;63463;53.586;9.928;2023-07-28T08:33:28;4.40;;;4.13;;
5612;SDS011;63463;53.586;9.928;2023-07-28T08:35:55;3.63;;;3.43;;
5612;SDS011;63463;53.586;9.928;2023-07-28T08:38:21;4.53;;;4.10;;
5612;SDS011;63463;53.586;9.928;2023-07-28T08:40:47;4.10;;;3.90;;
5612;SDS011;63463;53.586;9.928;2023-07-28T08:43:16;3.67;;;3.40;;
5612;SDS011;63463;53.586;9.928;2023-07-28T08:46:00;4.27;;;3.97;;
5612;SDS011;63463;53.586;9.928;2023-07-28T08:48:26;6.93;;;4.90;;
5612;SDS011;63463;53.586;9.928;2023-07-28T08:50:52;7.80;;;5.40;;
5612;SDS011;63463;53.586;9.928;2023-07-28T08:53:19;4.27;;;3.97;;
5612;SDS011;63463;53.586;9.928;2023-07-28T08:56:10;3.27;;;3.17;;
5612;SDS011;63463;53.586;9.928;2023-07-28T08:58:38;3.90;;;3.60;;
5612;SDS011;63463;53.586;9.928;2023-07-28T09:01:05;3.70;;;3.50;;
5612;SDS011;63463;53.586;9.928;2023-07-28T09:03:34;3.77;;;3.40;;
5612;SDS011;63463;53.586;9.928;2023-07-28T09:06:05;4.00;;;3.80;;
5612;SDS011;63463;53.586;9.928;2023-07-28T09:08:36;3.67;;;3.47;;
5612;SDS011;63463;53.586;9.928;2023-07-28T09:11:04;3.60;;;3.30;;
5612;SDS011;63463;53.586;9.928;2023-07-28T09:13:38;14.13;;;3.77;;
5612;SDS011;63463;53.586;9.928;2023-07-28T09:16:18;4.50;;;4.10;;
5612;SDS011;63463;53.586;9.928;2023-07-28T09:19:04;4.87;;;4.47;;
5612;SDS011;63463;53.586;9.928;2023-07-28T09:21:30;4.63;;;4.33;;
5612;SDS011;63463;53.586;9.928;2023-07-28T09:24:03;5.10;;;4.40;;
5612;SDS011;63463;53.586;9.928;2023-07-28T09:29:13;3.90;;;3.60;;
5612;SDS011;63463;53.586;9.928;2023-07-28T09:31:40;3.63;;;3.43;;
5612;SDS011;63463;53.586;9.928;2023-07-28T09:34:07;4.67;;;4.30;;
5612;SDS011;63463;53.586;9.928;2023-07-28T09:36:34;4.33;;;3.93;;
5612;SDS011;63463;53.586;9.928;2023-07-28T09:39:04;4.40;;;4.03;;
5612;SDS011;63463;53.586;9.928;2023-07-28T09:41:54;3.67;;;3.50;;
5612;SDS011;63463;53.586;9.928;2023-07-28T09:44:24;4.30;;;3.90;;
5612;SDS011;63463;53.586;9.928;2023-07-28T09:49:20;4.43;;;4.13;;
5612;SDS011;63463;53.586;9.928;2023-07-28T09:51:48;4.03;;;3.83;;
5612;SDS011;63463;53.586;9.928;2023-07-28T09:54:24;3.60;;;3.40;;
5612;SDS011;63463;53.586;9.928;2023-07-28T09:56:59;4.23;;;3.93;;
5612;SDS011;63463;53.586;9.928;2023-07-28T09:59:29;4.07;;;3.80;;
5612;SDS011;63463;53.586;9.928;2023-07-28T10:02:01;3.37;;;3.27;;
5612;SDS011;63463;53.586;9.928;2023-07-28T10:04:33;3.63;;;3.43;;
5612;SDS011;63463;53.586;9.928;2023-07-28T10:07:00;4.50;;;4.10;;
5612;SDS011;63463;53.586;9.928;2023-07-28T10:09:30;3.73;;;3.53;;
5612;SDS011;63463;53.586;9.928;2023-07-28T10:12:01;5.03;;;3.63;;
5612;SDS011;63463;53.586;9.928;2023-07-28T10:14:32;3.20;;;2.97;;
5612;SDS011;63463;53.586;9.928;2023-07-28T10:17:02;3.50;;;3.30;;
5612;SDS011;63463;53.586;9.928;2023-07-28T10:19:29;7.57;;;3.83;;
5612;SDS011;63463;53.586;9.928;2023-07-28T10:22:02;3.63;;;3.43;;
5612;SDS011;63463;53.586;9.928;2023-07-28T10:27:34;3.30;;;3.00;;
5612;SDS011;63463;53.586;9.928;2023-07-28T10:30:02;2.57;;;2.47;;
5612;SDS011;63463;53.586;9.928;2023-07-28T10:32:34;4.17;;;3.00;;
5612;SDS011;63463;53.586;9.928;2023-07-28T10:35:09;3.27;;;3.10;;
5612;SDS011;63463;53.586;9.928;2023-07-28T10:37:49;2.80;;;2.63;;
5612;SDS011;63463;53.586;9.928;2023-07-28T10:40:31;3.63;;;2.20;;
5612;SDS011;63463;53.586;9.928;2023-07-28T10:42:59;4.07;;;3.03;;
5612;SDS011;63463;53.586;9.928;2023-07-28T10:45:30;3.43;;;2.67;;
5612;SDS011;63463;53.586;9.928;2023-07-28T10:47:59;4.10;;;2.90;;
5612;SDS011;63463;53.586;9.928;2023-07-28T10:50:31;3.50;;;3.20;;
5612;SDS011;63463;53.586;9.928;2023-07-28T10:53:00;2.97;;;2.77;;
5612;SDS011;63463;53.586;9.928;2023-07-28T10:55:27;3.07;;;2.97;;
5612;SDS011;63463;53.586;9.928;2023-07-28T10:57:56;2.87;;;2.63;;
5612;SDS011;63463;53.586;9.928;2023-07-28T11:00:24;3.67;;;2.50;;
5612;SDS011;63463;53.586;9.928;2023-07-28T11:02:59;2.60;;;2.50;;
5612;SDS011;63463;53.586;9.928;2023-07-28T11:05:29;2.23;;;2.10;;
5612;SDS011;63463;53.586;9.928;2023-07-28T11:08:27;2.63;;;2.50;;
5612;SDS011;63463;53.586;9.928;2023-07-28T11:10:56;2.80;;;2.60;;
5612;SDS011;63463;53.586;9.928;2023-07-28T11:13:32;2.60;;;2.40;;
5612;SDS011;63463;53.586;9.928;2023-07-28T11:16:21;2.10;;;2.00;;
5612;SDS011;63463;53.586;9.928;2023-07-28T11:18:48;2.37;;;2.27;;
5612;SDS011;63463;53.586;9.928;2023-07-28T11:21:17;2.13;;;2.03;;
5612;SDS011;63463;53.586;9.928;2023-07-28T11:23:55;2.27;;;2.07;;
5612;SDS011;63463;53.586;9.928;2023-07-28T11:26:25;2.10;;;2.00;;
5612;SDS011;63463;53.586;9.928;2023-07-28T11:28:52;2.10;;;2.00;;
5612;SDS011;63463;53.586;9.928;2023-07-28T11:31:22;2.00;;;1.90;;
5612;SDS011;63463;53.586;9.928;2023-07-28T11:34:04;2.07;;;1.97;;
5612;SDS011;63463;53.586;9.928;2023-07-28T11:36:38;1.80;;;1.70;;
5612;SDS011;63463;53.586;9.928;2023-07-28T11:39:04;2.07;;;1.97;;
5612;SDS011;63463;53.586;9.928;2023-07-28T11:41:41;2.00;;;1.80;;
5612;SDS011;63463;53.586;9.928;2023-07-28T11:44:18;1.80;;;1.70;;
5612;SDS011;63463;53.586;9.928;2023-07-28T11:46:47;2.50;;;1.70;;
5612;SDS011;63463;53.586;9.928;2023-07-28T11:49:23;1.97;;;1.87;;
5612;SDS011;63463;53.586;9.928;2023-07-28T11:52:10;1.90;;;1.80;;
5612;SDS011;63463;53.586;9.928;2023-07-28T11:54:36;1.83;;;1.73;;
5612;SDS011;63463;53.586;9.928;2023-07-28T11:57:12;1.87;;;1.77;;
5612;SDS011;63463;53.586;9.928;2023-07-28T12:00:05;2.00;;;1.90;;
5612;SDS011;63463;53.586;9.928;2023-07-28T12:02:35;1.57;;;1.57;;
5612;SDS011;63463;53.586;9.928;2023-07-28T12:05:11;1.90;;;1.80;;
5612;SDS011;63463;53.586;9.928;2023-07-28T12:07:41;1.57;;;1.47;;
5612;SDS011;63463;53.586;9.928;2023-07-28T12:10:10;1.60;;;1.50;;
5612;SDS011;63463;53.586;9.928;2023-07-28T12:12:41;1.63;;;1.53;;
5612;SDS011;63463;53.586;9.928;2023-07-28T12:15:24;2.30;;;2.10;;
5612;SDS011;63463;53.586;9.928;2023-07-28T12:20:46;2.30;;;1.70;;
5612;SDS011;63463;53.586;9.928;2023-07-28T12:23:18;1.73;;;1.63;;
5612;SDS011;63463;53.586;9.928;2023-07-28T12:25:48;2.00;;;1.90;;
5612;SDS011;63463;53.586;9.928;2023-07-28T12:28:18;2.03;;;1.83;;
5612;SDS011;63463;53.586;9.928;2023-07-28T12:30:44;2.20;;;2.10;;
5612;SDS011;63463;53.586;9.928;2023-07-28T12:33:10;2.60;;;2.40;;
5612;SDS011;63463;53.586;9.928;2023-07-28T12:35:39;1.77;;;1.67;;
5612;SDS011;63463;53.586;9.928;2023-07-28T12:38:08;2.10;;;2.00;;
5612;SDS011;63463;53.586;9.928;2023-07-28T12:40:34;2.13;;;2.03;;
5612;SDS011;63463;53.586;9.928;2023-07-28T12:43:01;1.60;;;1.50;;
5612;SDS011;63463;53.586;9.928;2023-07-28T12:45:27;1.50;;;1.40;;
5612;SDS011;63463;53.586;9.928;2023-07-28T12:48:08;1.40;;;1.30;;
5612;SDS011;63463;53.586;9.928;2023-07-28T12:50:37;2.00;;;1.90;;
5612;SDS011;63463;53.586;9.928;2023-07-28T12:53:03;2.50;;;1.63;;
5612;SDS011;63463;53.586;9.928;2023-07-28T12:55:29;1.80;;;1.70;;
5612;SDS011;63463;53.586;9.928;2023-07-28T12:58:16;1.63;;;1.50;;
5612;SDS011;63463;53.586;9.928;2023-07-28T13:00:43;1.70;;;1.60;;
5612;SDS011;63463;53.586;9.928;2023-07-28T13:03:15;1.80;;;1.70;;
5612;SDS011;63463;53.586;9.928;2023-07-28T13:08:43;2.00;;;1.90;;
5612;SDS011;63463;53.586;9.928;2023-07-28T13:13:38;1.80;;;1.70;;
5612;SDS011;63463;53.586;9.928;2023-07-28T13:16:03;1.93;;;1.83;;
5612;SDS011;63463;53.586;9.928;2023-07-28T13:18:29;2.00;;;1.90;;
5612;SDS011;63463;53.586;9.928;2023-07-28T13:20:56;2.10;;;2.00;;
5612;SDS011;63463;53.586;9.928;2023-07-28T13:23:22;2.00;;;1.90;;
5612;SDS011;63463;53.586;9.928;2023-07-28T13:25:48;2.10;;;2.00;;
5612;SDS011;63463;53.586;9.928;2023-07-28T13:28:13;1.87;;;1.77;;
5612;SDS011;63463;53.586;9.928;2023-07-28T13:30:40;1.80;;;1.70;;
5612;SDS011;63463;53.586;9.928;2023-07-28T13:33:06;2.70;;;2.50;;
5612;SDS011;63463;53.586;9.928;2023-07-28T13:35:32;1.93;;;1.80;;
5612;SDS011;63463;53.586;9.928;2023-07-28T13:37:58;1.63;;;1.57;;
5612;SDS011;63463;53.586;9.928;2023-07-28T13:40:24;1.70;;;1.60;;
5612;SDS011;63463;53.586;9.928;2023-07-28T13:42:50;1.50;;;1.40;;
5612;SDS011;63463;53.586;9.928;2023-07-28T13:45:16;2.97;;;1.70;;
5612;SDS011;63463;53.586;9.928;2023-07-28T13:47:42;1.70;;;1.60;;
5612;SDS011;63463;53.586;9.928;2023-07-28T13:50:08;1.77;;;1.67;;
5612;SDS011;63463;53.586;9.928;2023-07-28T13:52:34;1.40;;;1.25;;
5612;SDS011;63463;53.586;9.928;2023-07-28T13:55:00;1.33;;;1.30;;
5612;SDS011;63463;53.586;9.928;2023-07-28T13:57:26;1.80;;;1.70;;
5612;SDS011;63463;53.586;9.928;2023-07-28T13:59:52;2.38;;;1.50;;
5612;SDS011;63463;53.586;9.928;2023-07-28T14:02:18;4.57;;;1.55;;
5612;SDS011;63463;53.586;9.928;2023-07-28T14:04:44;3.60;;;1.83;;
5612;SDS011;63463;53.586;9.928;2023-07-28T14:07:10;1.88;;;1.50;;
5612;SDS011;63463;53.586;9.928;2023-07-28T14:09:36;2.67;;;1.67;;
5612;SDS011;63463;53.586;9.928;2023-07-28T14:12:03;1.70;;;1.60;;
5612;SDS011;63463;53.586;9.928;2023-07-28T14:14:29;5.68;;;1.63;;
5612;SDS011;63463;53.586;9.928;2023-07-28T14:16:55;1.50;;;1.40;;
5612;SDS011;63463;53.586;9.928;2023-07-28T14:19:21;6.53;;;1.83;;
5612;SDS011;63463;53.586;9.928;2023-07-28T14:21:47;2.40;;;1.53;;
5612;SDS011;63463;53.586;9.928;2023-07-28T14:24:13;3.35;;;1.38;;
5612;SDS011;63463;53.586;9.928;2023-07-28T14:26:39;1.85;;;1.45;;
5612;SDS011;63463;53.586;9.928;2023-07-28T14:29:05;1.55;;;1.45;;
5612;SDS011;63463;53.586;9.928;2023-07-28T14:31:31;1.30;;;1.30;;
5612;SDS011;63463;53.586;9.928;2023-07-28T14:33:57;1.60;;;1.50;;
5612;SDS011;63463;53.586;9.928;2023-07-28T14:36:23;1.15;;;1.15;;
5612;SDS011;63463;53.586;9.928;2023-07-28T14:38:49;2.60;;;1.58;;
5612;SDS011;63463;53.586;9.928;2023-07-28T14:41:15;1.15;;;1.15;;
5612;SDS011;63463;53.586;9.928;2023-07-28T14:43:42;1.52;;;1.42;;
5612;SDS011;63463;53.586;9.928;2023-07-28T14:46:08;1.40;;;1.25;;
5612;SDS011;63463;53.586;9.928;2023-07-28T14:48:35;1.65;;;1.20;;
5612;SDS011;63463;53.586;9.928;2023-07-28T14:51:01;1.88;;;1.42;;
5612;SDS011;63463;53.586;9.928;2023-07-28T14:53:27;5.47;;;1.10;;
5612;SDS011;63463;53.586;9.928;2023-07-28T14:55:54;1.13;;;1.13;;
5612;SDS011;63463;53.586;9.928;2023-07-28T14:58:20;1.30;;;1.20;;
5612;SDS011;63463;53.586;9.928;2023-07-28T15:00:46;1.65;;;1.55;;
5612;SDS011;63463;53.586;9.928;2023-07-28T15:03:12;1.65;;;1.25;;
5612;SDS011;63463;53.586;9.928;2023-07-28T15:05:38;1.20;;;1.10;;
5612;SDS011;63463;53.586;9.928;2023-07-28T15:08:04;2.28;;;0.82;;
5612;SDS011;63463;53.586;9.928;2023-07-28T15:10:30;1.40;;;1.30;;
5612;SDS011;63463;53.586;9.928;2023-07-28T15:12:56;1.33;;;1.23;;
5612;SDS011;63463;53.586;9.928;2023-07-28T15:15:21;1.07;;;1.07;;
5612;SDS011;63463;53.586;9.928;2023-07-28T15:17:47;1.33;;;1.17;;
5612;SDS011;63463;53.586;9.928;2023-07-28T15:20:13;1.83;;;1.73;;
5612;SDS011;63463;53.586;9.928;2023-07-28T15:22:41;1.50;;;1.33;;
5612;SDS011;63463;53.586;9.928;2023-07-28T15:25:07;1.23;;;1.13;;
5612;SDS011;63463;53.586;9.928;2023-07-28T15:27:33;1.10;;;1.10;;
5612;SDS011;63463;53.586;9.928;2023-07-28T15:29:59;3.63;;;1.37;;
5612;SDS011;63463;53.586;9.928;2023-07-28T15:32:25;1.33;;;1.23;;
5612;SDS011;63463;53.586;9.928;2023-07-28T15:34:51;1.30;;;1.20;;
5612;SDS011;63463;53.586;9.928;2023-07-28T15:37:18;1.55;;;1.20;;
5612;SDS011;63463;53.586;9.928;2023-07-28T15:39:44;2.08;;;1.00;;
5612;SDS011;63463;53.586;9.928;2023-07-28T15:42:10;1.57;;;1.40;;
5612;SDS011;63463;53.586;9.928;2023-07-28T15:44:36;1.10;;;1.10;;
5612;SDS011;63463;53.586;9.928;2023-07-28T15:47:02;2.38;;;1.48;;
5612;SDS011;63463;53.586;9.928;2023-07-28T15:49:28;1.05;;;1.05;;